Time;durP1;ratioP1;P1;durP2;ratioP2;P2;SDS_P1;SDS_P2;PMS_P1;PMS_P2;Temp;Humidity;BMP_temperature;BMP_pressure;BME280_temperature;BME280_humidity;BME280_pressure;Samples;Min_cycle;Max_cycle;Signal;HPM_P1;HPM_P2
2021/04/10 00:00:35;;;;;;;;;;;;;;;20.80;44.75;100797.53;2088014;28;1894;-72
2021/04/10 00:01:36;;;;;;;;;;;;;;;20.80;44.78;100800.38;2089600;28;1828;-71
2021/04/10 00:02:38;;;;;;;;;;;;;;;20.80;44.94;100797.53;2082951;28;2359;-69
2021/04/10 00:03:39;;;;;;;;;;;;;;;20.80;44.80;100798.34;2089241;28;1645;-70
2021/04/10 00:04:40;;;;;;;;;;;;;;;20.80;44.93;100804.03;2089805;28;1374;-71
2021/04/10 00:05:41;;;;;;;;;;;;;;;20.80;44.83;100806.06;2087913;28;1886;-71
2021/04/10 00:06:42;;;;;;;;;;;;;;;20.80;45.06;100804.03;2089861;28;1864;-71
2021/04/10 00:07:42;;;;;;;;;;;;;;;20.80;44.98;100806.88;2091842;28;1799;-70
2021/04/10 00:08:43;;;;;;;;;;;;;;;20.80;45.13;100811.75;2082692;28;1548;-70
2021/04/10 00:09:44;;;;;;;;;;;;;;;20.80;45.02;100814.59;2089218;28;2001;-70
2021/04/10 00:10:45;;;;;;;;;;;;;;;20.80;44.87;100811.75;2079742;28;1939;-71
2021/04/10 00:11:45;;;;;;;;;;;;;;;20.80;44.92;100815.41;2081285;28;2201;-71
2021/04/10 00:12:46;;;;;;;;;;;;;;;20.80;45.02;100811.75;2088470;28;2031;-71
2021/04/10 00:13:47;;;;;;;;;;;;;;;20.80;44.94;100809.72;2089797;28;1118;-71
2021/04/10 00:14:48;;;;;;;;;;;;;;;20.80;45.03;100814.59;2089136;28;1837;-71
2021/04/10 00:15:48;;;;;;;;;;;;;;;20.79;44.98;100812.94;2089693;28;1584;-71
2021/04/10 00:16:49;;;;;;;;;;;;;;;20.80;45.12;100814.59;2089475;28;1906;-71
2021/04/10 00:17:50;;;;;;;;;;;;;;;20.79;44.98;100810.94;2089351;28;1772;-70
2021/04/10 00:18:51;;;;;;;;;;;;;;;20.81;45.17;100813.41;2088954;28;1693;-70
2021/04/10 00:19:52;;;;;;;;;;;;;;;20.80;45.13;100806.88;2089129;28;1728;-70
2021/04/10 00:20:52;;;;;;;;;;;;;;;20.80;45.21;100812.56;2089590;28;1708;-71
2021/04/10 00:21:53;;;;;;;;;;;;;;;20.80;45.19;100808.91;2089842;28;1583;-72
2021/04/10 00:22:54;;;;;;;;;;;;;;;20.79;45.13;100813.78;2086280;28;1937;-71
2021/04/10 00:23:55;;;;;;;;;;;;;;;20.81;45.23;100817.06;2088806;28;1589;-72
2021/04/10 00:24:55;;;;;;;;;;;;;;;20.81;45.18;100811.38;2089136;28;1654;-69
2021/04/10 00:25:56;;;;;;;;;;;;;;;20.81;45.28;100802.03;2080408;28;1723;-70
2021/04/10 00:26:57;;;;;;;;;;;;;;;20.80;45.26;100812.56;2080201;28;1170;-70
2021/04/10 00:27:59;;;;;;;;;;;;;;;20.81;45.32;100810.56;2085742;28;1499;-69
2021/04/10 00:28:59;;;;;;;;;;;;;;;20.81;45.18;100814.22;2088642;28;1061;-71
2021/04/10 00:30:00;;;;;;;;;;;;;;;20.82;45.31;100817.94;2088549;28;1975;-71
2021/04/10 00:31:07;;;;;;;;;;;;;;;20.81;45.27;100817.06;2087310;28;2036;-71
2021/04/10 00:32:08;;;;;;;;;;;;;;;20.82;45.43;100815.91;2083434;28;1208;-72
2021/04/10 00:33:09;;;;;;;;;;;;;;;20.81;45.27;100817.06;2090546;28;1740;-71
2021/04/10 00:34:10;;;;;;;;;;;;;;;20.81;45.41;100811.38;2090116;28;1587;-71
2021/04/10 00:35:11;;;;;;;;;;;;;;;20.81;45.23;100813.41;2087983;28;1948;-72
2021/04/10 00:36:11;;;;;;;;;;;;;;;20.81;45.34;100816.25;2089505;28;1530;-73
2021/04/10 00:37:12;;;;;;;;;;;;;;;20.82;45.37;100818.75;2090357;28;1899;-73
2021/04/10 00:38:13;;;;;;;;;;;;;;;20.82;45.38;100810.22;2089382;28;1926;-72
2021/04/10 00:39:14;;;;;;;;;;;;;;;20.81;45.28;100814.22;2090916;28;1173;-72
2021/04/10 00:40:14;;;;;;;;;;;;;;;20.82;45.37;100812.25;2091504;28;1048;-71
2021/04/10 00:41:15;;;;;;;;;;;;;;;20.82;45.50;100810.22;2087410;28;1953;-71
2021/04/10 00:42:16;;;;;;;;;;;;;;;20.83;45.46;100808.19;2086325;28;2205;-71
2021/04/10 00:43:16;;;;;;;;;;;;;;;20.83;45.52;100805.34;2088893;28;2074;-72
2021/04/10 00:44:17;;;;;;;;;;;;;;;20.83;45.60;100802.50;2089943;28;1838;-72
2021/04/10 00:45:18;;;;;;;;;;;;;;;20.83;45.49;100805.34;2091164;28;1751;-72
2021/04/10 00:46:19;;;;;;;;;;;;;;;20.83;45.59;100796.81;2091642;28;1127;-72
2021/04/10 00:47:19;;;;;;;;;;;;;;;20.83;45.46;100794.81;2086854;28;1871;-72
2021/04/10 00:48:20;;;;;;;;;;;;;;;20.83;45.64;100791.13;2091129;28;1119;-72
2021/04/10 00:49:21;;;;;;;;;;;;;;;20.83;45.62;100785.44;2090586;28;1682;-72
2021/04/10 00:50:22;;;;;;;;;;;;;;;20.84;45.58;100778.56;2089313;28;2148;-71
2021/04/10 00:51:23;;;;;;;;;;;;;;;20.84;45.73;100775.72;2084408;28;2118;-70
2021/04/10 00:52:24;;;;;;;;;;;;;;;20.83;45.56;100772.06;2086585;28;1797;-73
2021/04/10 00:53:25;;;;;;;;;;;;;;;20.84;45.73;100789.94;2085656;28;2028;-72
2021/04/10 00:54:25;;;;;;;;;;;;;;;20.82;45.75;100776.09;2086014;28;1848;-72
2021/04/10 00:55:26;;;;;;;;;;;;;;;20.83;45.65;100774.06;2090452;28;1734;-73
2021/04/10 00:56:27;;;;;;;;;;;;;;;20.83;45.74;100769.22;2085533;28;1972;-72
2021/04/10 00:57:28;;;;;;;;;;;;;;;20.83;45.61;100769.22;2088613;28;2092;-72
2021/04/10 00:58:28;;;;;;;;;;;;;;;20.83;45.64;100774.06;2090494;28;2090;-73
2021/04/10 00:59:29;;;;;;;;;;;;;;;20.83;45.78;100780.59;2091178;28;1024;-72
2021/04/10 01:00:30;;;;;;;;;;;;;;;20.83;45.60;100776.91;2089659;28;1833;-72
2021/04/10 01:01:31;;;;;;;;;;;;;;;20.83;45.72;100774.06;2089427;28;1925;-72
2021/04/10 01:02:32;;;;;;;;;;;;;;;20.83;45.81;100779.75;2086225;28;2240;-72
2021/04/10 01:03:33;;;;;;;;;;;;;;;20.83;45.81;100782.59;2091003;28;2300;-72
2021/04/10 01:04:33;;;;;;;;;;;;;;;20.83;45.74;100789.13;2093717;28;1812;-72
2021/04/10 01:05:34;;;;;;;;;;;;;;;20.84;45.91;100790.81;2089940;28;1816;-70
2021/04/10 01:06:35;;;;;;;;;;;;;;;20.84;45.76;100796.50;2091007;28;2062;-71
2021/04/10 01:07:36;;;;;;;;;;;;;;;20.83;45.79;100786.28;2084800;28;2019;-71
2021/04/10 01:08:36;;;;;;;;;;;;;;;20.84;45.82;100787.97;2089384;28;1123;-72
2021/04/10 01:09:37;;;;;;;;;;;;;;;20.84;45.84;100787.97;2091238;28;1114;-71
2021/04/10 01:10:39;;;;;;;;;;;;;;;20.84;45.83;100787.97;2091648;28;1904;-72
2021/04/10 01:11:39;;;;;;;;;;;;;;;20.84;45.92;100784.25;2090756;28;1776;-71
2021/04/10 01:12:40;;;;;;;;;;;;;;;20.85;45.82;100788.78;2091489;28;1052;-71
2021/04/10 01:13:41;;;;;;;;;;;;;;;20.84;45.92;100782.28;2084901;28;1878;-72
2021/04/10 01:14:41;;;;;;;;;;;;;;;20.83;45.79;100786.28;2088508;28;1693;-73
2021/04/10 01:15:42;;;;;;;;;;;;;;;20.84;45.83;100787.97;2086148;28;1716;-73
2021/04/10 01:16:43;;;;;;;;;;;;;;;20.83;45.87;100783.44;2088552;28;1914;-74
2021/04/10 01:17:44;;;;;;;;;;;;;;;20.85;45.90;100788.78;2088178;28;1788;-72
2021/04/10 01:18:45;;;;;;;;;;;;;;;20.85;45.81;100788.78;2087976;28;1962;-72
2021/04/10 01:19:46;;;;;;;;;;;;;;;20.84;45.91;100785.13;2090112;28;1834;-76
2021/04/10 01:20:47;;;;;;;;;;;;;;;20.84;45.92;100785.13;2090625;28;1567;-71
2021/04/10 01:21:48;;;;;;;;;;;;;;;20.84;45.87;100782.28;2091262;28;1180;-70
2021/04/10 01:22:48;;;;;;;;;;;;;;;20.83;45.88;100779.75;2090689;28;1824;-71
2021/04/10 01:23:49;;;;;;;;;;;;;;;20.82;46.00;100778.13;2089181;28;1890;-76
2021/04/10 01:24:50;;;;;;;;;;;;;;;20.80;45.84;100781.28;2091499;28;2464;-70
2021/04/10 01:25:51;;;;;;;;;;;;;;;20.81;45.83;100782.94;2090742;28;1815;-68
2021/04/10 01:26:54;;;;;;;;;;;;;;;20.82;45.93;100783.81;2087824;28;2041;-67
2021/04/10 01:27:56;;;;;;;;;;;;;;;20.83;45.77;100779.75;2079778;28;1676;-69
2021/04/10 01:28:56;;;;;;;;;;;;;;;20.83;45.93;100779.75;2077874;28;1943;-67
2021/04/10 01:29:57;;;;;;;;;;;;;;;20.83;45.91;100780.59;2087723;28;1793;-67
2021/04/10 01:30:58;;;;;;;;;;;;;;;20.83;45.78;100774.91;2087138;28;1727;-68
2021/04/10 01:31:59;;;;;;;;;;;;;;;20.85;45.91;100783.09;2089959;28;1625;-68
2021/04/10 01:32:59;;;;;;;;;;;;;;;20.84;45.71;100779.44;2090372;28;1891;-68
2021/04/10 01:34:00;;;;;;;;;;;;;;;20.85;45.85;100783.91;2087459;28;2030;-68
2021/04/10 01:35:01;;;;;;;;;;;;;;;20.85;45.79;100781.06;2090047;28;1781;-68
2021/04/10 01:36:02;;;;;;;;;;;;;;;20.85;45.99;100783.91;2090767;28;945;-68
2021/04/10 01:37:03;;;;;;;;;;;;;;;20.86;46.03;100779.88;2090314;28;1980;-68
2021/04/10 01:38:03;;;;;;;;;;;;;;;20.87;46.09;100787.25;2089095;28;1940;-68
2021/04/10 01:39:04;;;;;;;;;;;;;;;20.87;45.93;100780.72;2088987;28;1918;-67
2021/04/10 01:40:05;;;;;;;;;;;;;;;20.87;45.97;100787.25;2091364;28;1103;-68
2021/04/10 01:41:06;;;;;;;;;;;;;;;20.87;46.13;100781.56;2090410;28;1664;-68
2021/04/10 01:42:07;;;;;;;;;;;;;;;20.87;46.09;100780.72;2089781;28;1688;-68
2021/04/10 01:43:08;;;;;;;;;;;;;;;20.87;46.09;100786.41;2089103;28;1831;-67
2021/04/10 01:44:08;;;;;;;;;;;;;;;20.87;46.11;100787.25;2085184;28;1833;-68
2021/04/10 01:45:09;;;;;;;;;;;;;;;20.87;46.08;100784.41;2088869;28;1092;-69
2021/04/10 01:46:10;;;;;;;;;;;;;;;20.87;46.09;100784.41;2085126;28;2096;-68
2021/04/10 01:47:11;;;;;;;;;;;;;;;20.86;46.19;100782.72;2088146;28;1571;-68
2021/04/10 01:48:12;;;;;;;;;;;;;;;20.87;46.07;100784.41;2085988;28;1947;-68
2021/04/10 01:49:12;;;;;;;;;;;;;;;20.87;46.18;100778.72;2090695;28;2087;-68
2021/04/10 01:50:13;;;;;;;;;;;;;;;20.87;46.22;100772.19;2090417;28;1690;-68
2021/04/10 01:51:14;;;;;;;;;;;;;;;20.87;46.07;100787.25;2087859;28;2069;-68
2021/04/10 01:52:15;;;;;;;;;;;;;;;20.88;46.32;100794.59;2087707;28;2111;-68
2021/04/10 01:53:15;;;;;;;;;;;;;;;20.88;46.27;100788.06;2091174;28;1056;-68
2021/04/10 01:54:16;;;;;;;;;;;;;;;20.89;46.35;100789.72;2088998;28;1971;-67
2021/04/10 01:55:17;;;;;;;;;;;;;;;20.88;46.37;100786.06;2090564;28;1196;-69
2021/04/10 01:56:23;;;;;;;;;;;;;;;20.89;46.24;100784.84;2081871;28;1837;-69
2021/04/10 01:57:24;;;;;;;;;;;;;;;20.89;46.24;100789.72;2083041;28;1914;-70
2021/04/10 01:58:25;;;;;;;;;;;;;;;20.89;46.39;100789.72;2093532;28;1040;-69
2021/04/10 01:59:26;;;;;;;;;;;;;;;20.88;46.44;100788.06;2087910;28;1952;-69
2021/04/10 02:00:26;;;;;;;;;;;;;;;20.88;46.26;100790.91;2087753;28;1794;-70
2021/04/10 02:01:27;;;;;;;;;;;;;;;20.89;46.34;100807.59;2091042;28;1281;-69
2021/04/10 02:02:29;;;;;;;;;;;;;;;20.89;46.38;100803.94;2090019;28;2155;-69
2021/04/10 02:03:29;;;;;;;;;;;;;;;20.88;46.29;100803.13;2088892;28;1808;-69
2021/04/10 02:04:30;;;;;;;;;;;;;;;20.88;46.42;100803.13;2090433;28;1780;-69
2021/04/10 02:05:31;;;;;;;;;;;;;;;20.88;46.33;100800.28;2090827;28;1133;-69
2021/04/10 02:06:32;;;;;;;;;;;;;;;20.88;46.30;100793.75;2087705;28;1906;-69
2021/04/10 02:07:32;;;;;;;;;;;;;;;20.88;46.29;100803.13;2093460;28;1896;-69
2021/04/10 02:08:33;;;;;;;;;;;;;;;20.88;46.36;100797.44;2090640;28;2062;-69
2021/04/10 02:09:34;;;;;;;;;;;;;;;20.88;46.32;100800.28;2088141;28;2020;-69
2021/04/10 02:10:35;;;;;;;;;;;;;;;20.88;46.52;100805.13;2085082;28;1938;-69
2021/04/10 02:11:36;;;;;;;;;;;;;;;20.88;46.42;100805.97;2090600;28;1083;-69
2021/04/10 02:12:36;;;;;;;;;;;;;;;20.87;46.53;100804.31;2090070;28;2031;-70
2021/04/10 02:13:38;;;;;;;;;;;;;;;20.88;46.50;100802.28;2086478;28;1956;-69
2021/04/10 02:14:39;;;;;;;;;;;;;;;20.89;46.62;100798.25;2088393;28;1775;-71
2021/04/10 02:15:39;;;;;;;;;;;;;;;20.89;46.47;100801.09;2087996;28;2013;-71
2021/04/10 02:16:40;;;;;;;;;;;;;;;20.88;46.58;100803.13;2088801;28;1977;-70
2021/04/10 02:17:41;;;;;;;;;;;;;;;20.91;46.66;100798.72;2089079;28;1918;-75
2021/04/10 02:18:42;;;;;;;;;;;;;;;20.89;46.68;100807.59;2087899;28;1938;-71
2021/04/10 02:19:43;;;;;;;;;;;;;;;20.90;46.76;100802.78;2090197;28;1669;-74
2021/04/10 02:20:44;;;;;;;;;;;;;;;20.91;46.67;100801.59;2089545;28;1767;-73
2021/04/10 02:21:45;;;;;;;;;;;;;;;20.90;46.56;100806.44;2088704;28;1913;-75
2021/04/10 02:22:49;;;;;;;;;;;;;;;20.90;46.57;100802.78;2089204;28;1936;-74
2021/04/10 02:23:50;;;;;;;;;;;;;;;20.89;46.73;100804.75;2089218;28;1752;-74
2021/04/10 02:24:51;;;;;;;;;;;;;;;20.90;46.75;100811.31;2088688;28;2403;-74
2021/04/10 02:25:52;;;;;;;;;;;;;;;20.89;46.64;100813.28;2087539;28;1938;-71
2021/04/10 02:26:53;;;;;;;;;;;;;;;20.89;46.57;100813.28;2079605;28;2138;-72
2021/04/10 02:27:54;;;;;;;;;;;;;;;20.89;46.55;100813.28;2079923;28;1839;-71
2021/04/10 02:28:54;;;;;;;;;;;;;;;20.89;46.64;100816.13;2089552;28;1688;-71
2021/04/10 02:29:55;;;;;;;;;;;;;;;20.89;46.82;100807.59;2090068;28;1942;-72
2021/04/10 02:30:59;;;;;;;;;;;;;;;20.90;46.65;100812.13;2090514;28;1095;-72
2021/04/10 02:31:59;;;;;;;;;;;;;;;20.89;46.80;100813.28;2085966;28;1644;-72
2021/04/10 02:33:00;;;;;;;;;;;;;;;20.90;46.72;100814.16;2087459;28;1918;-71
2021/04/10 02:34:01;;;;;;;;;;;;;;;20.90;46.82;100809.28;2083499;28;1989;-72
2021/04/10 02:35:02;;;;;;;;;;;;;;;20.90;46.78;100808.47;2088799;28;1821;-71
2021/04/10 02:36:03;;;;;;;;;;;;;;;20.91;46.71;100821.50;2088161;28;1898;-71
2021/04/10 02:37:04;;;;;;;;;;;;;;;20.90;46.76;100812.13;2090446;28;1917;-71
2021/04/10 02:38:05;;;;;;;;;;;;;;;20.91;46.77;100815.81;2089913;28;1817;-71
2021/04/10 02:39:06;;;;;;;;;;;;;;;20.91;47.16;100808.09;2079254;28;1920;-71
2021/04/10 02:40:06;;;;;;;;;;;;;;;20.91;46.97;100816.63;2081368;28;1730;-71
2021/04/10 02:41:07;;;;;;;;;;;;;;;20.91;46.88;100813.78;2089525;28;1826;-71
2021/04/10 02:42:08;;;;;;;;;;;;;;;20.91;46.99;100819.47;2088460;28;1914;-72
2021/04/10 02:43:09;;;;;;;;;;;;;;;20.91;46.97;100813.78;2090142;28;1522;-71
2021/04/10 02:44:09;;;;;;;;;;;;;;;20.92;46.97;100811.75;2090499;28;1033;-71
2021/04/10 02:45:10;;;;;;;;;;;;;;;20.92;47.03;100817.44;2080235;28;1938;-71
2021/04/10 02:46:11;;;;;;;;;;;;;;;20.93;47.05;100815.47;2078874;28;1737;-72
2021/04/10 02:47:12;;;;;;;;;;;;;;;20.93;47.05;100818.31;2090322;28;1108;-73
2021/04/10 02:48:13;;;;;;;;;;;;;;;20.93;46.97;100807.75;2085283;28;1930;-73
2021/04/10 02:49:13;;;;;;;;;;;;;;;20.93;47.09;100802.06;2088373;28;1866;-71
2021/04/10 02:50:14;;;;;;;;;;;;;;;20.94;47.12;100797.19;2089816;28;2093;-72
2021/04/10 02:51:15;;;;;;;;;;;;;;;20.95;46.94;100801.69;2089270;28;1917;-72
2021/04/10 02:52:15;;;;;;;;;;;;;;;20.94;47.10;100791.50;2087460;28;1819;-72
2021/04/10 02:53:16;;;;;;;;;;;;;;;20.94;47.10;100794.34;2086731;28;1540;-72
2021/04/10 02:54:17;;;;;;;;;;;;;;;20.94;46.89;100800.88;2089676;28;1717;-72
2021/04/10 02:55:18;;;;;;;;;;;;;;;20.93;46.87;100798.41;2089961;28;1526;-72
2021/04/10 02:56:18;;;;;;;;;;;;;;;20.96;47.11;100800.53;2087102;28;1917;-72
2021/04/10 02:57:19;;;;;;;;;;;;;;;20.95;46.99;100801.69;2085626;28;1963;-72
2021/04/10 02:58:20;;;;;;;;;;;;;;;20.95;46.93;100798.84;2088112;28;1906;-71
2021/04/10 02:59:21;;;;;;;;;;;;;;;20.94;46.91;100805.72;2087382;28;2215;-73
2021/04/10 03:00:21;;;;;;;;;;;;;;;20.95;47.11;100801.69;2089670;28;1708;-72
2021/04/10 03:01:22;;;;;;;;;;;;;;;20.95;47.08;100805.41;2089872;28;1187;-73
2021/04/10 03:02:23;;;;;;;;;;;;;;;20.95;46.98;100805.41;2089521;28;1973;-72
2021/04/10 03:03:24;;;;;;;;;;;;;;;20.95;47.14;100810.22;2081072;28;1825;-72
2021/04/10 03:04:25;;;;;;;;;;;;;;;20.96;47.19;100817.59;2079834;28;1877;-72
2021/04/10 03:05:25;;;;;;;;;;;;;;;20.97;47.15;100802.19;2084862;28;1757;-72
2021/04/10 03:06:26;;;;;;;;;;;;;;;20.96;47.24;100809.06;2089646;28;1661;-71
2021/04/10 03:07:27;;;;;;;;;;;;;;;20.96;47.19;100809.88;2088168;28;1866;-72
2021/04/10 03:08:28;;;;;;;;;;;;;;;20.98;47.18;100818.91;2086480;28;1961;-73
2021/04/10 03:09:28;;;;;;;;;;;;;;;20.98;47.37;100818.91;2087123;28;2563;-72
2021/04/10 03:10:29;;;;;;;;;;;;;;;20.98;47.33;100824.59;2086719;28;1953;-72
2021/04/10 03:11:30;;;;;;;;;;;;;;;20.98;47.35;100827.44;2089897;28;1740;-69
2021/04/10 03:12:31;;;;;;;;;;;;;;;20.98;47.40;100816.06;2089899;28;1921;-70
2021/04/10 03:13:31;;;;;;;;;;;;;;;20.97;47.29;100817.22;2089029;28;1950;-70
2021/04/10 03:14:32;;;;;;;;;;;;;;;20.99;47.60;100826.25;2095326;28;1111;-71
2021/04/10 03:15:33;;;;;;;;;;;;;;;20.99;47.39;100825.41;2086595;28;1966;-70
2021/04/10 03:16:34;;;;;;;;;;;;;;;20.99;47.51;100829.09;2089645;28;2160;-70
2021/04/10 03:17:34;;;;;;;;;;;;;;;20.99;47.38;100831.09;2088889;28;2036;-70
2021/04/10 03:18:35;;;;;;;;;;;;;;;20.98;47.39;100821.75;2090380;28;1847;-70
2021/04/10 03:19:36;;;;;;;;;;;;;;;20.98;47.42;100827.44;2087730;28;2228;-70
2021/04/10 03:20:38;;;;;;;;;;;;;;;20.98;47.51;100827.44;2089463;28;1721;-71
2021/04/10 03:21:39;;;;;;;;;;;;;;;20.99;47.48;100828.25;2089201;28;1891;-69
2021/04/10 03:22:40;;;;;;;;;;;;;;;20.99;47.49;100829.09;2089351;28;1681;-73
2021/04/10 03:23:40;;;;;;;;;;;;;;;21.00;47.50;100835.59;2088957;28;1701;-72
2021/04/10 03:24:41;;;;;;;;;;;;;;;20.98;47.69;100833.13;2089508;28;2060;-72
2021/04/10 03:25:42;;;;;;;;;;;;;;;20.99;47.53;100831.09;2088835;28;1945;-72
2021/04/10 03:26:43;;;;;;;;;;;;;;;21.00;47.59;100841.28;2089207;28;1950;-72
2021/04/10 03:27:43;;;;;;;;;;;;;;;20.99;47.59;100833.94;2088457;28;1921;-72
2021/04/10 03:28:44;;;;;;;;;;;;;;;20.99;47.48;100829.09;2087893;28;1844;-73
2021/04/10 03:29:45;;;;;;;;;;;;;;;21.00;47.59;100832.75;2090071;28;1088;-73
2021/04/10 03:31:02;;;;;;;;;;;;;;;20.99;47.50;100831.94;2089020;28;2048;-79
2021/04/10 03:32:02;;;;;;;;;;;;;;;21.00;47.72;100841.28;2088850;28;1811;-79
2021/04/10 03:33:03;;;;;;;;;;;;;;;21.01;47.51;100848.66;2086641;28;1843;-79
2021/04/10 03:34:04;;;;;;;;;;;;;;;21.00;47.63;100844.13;2087031;28;1576;-79
2021/04/10 03:35:05;;;;;;;;;;;;;;;21.01;47.52;100843.78;2089327;28;2003;-76
2021/04/10 03:36:05;;;;;;;;;;;;;;;21.00;47.67;100842.13;2090305;28;1713;-76
2021/04/10 03:37:06;;;;;;;;;;;;;;;21.02;47.58;100850.31;2092534;28;1844;-76
2021/04/10 03:38:07;;;;;;;;;;;;;;;21.01;47.63;100845.81;2089238;28;1945;-73
2021/04/10 03:39:08;;;;;;;;;;;;;;;21.01;47.77;100843.78;2090810;28;1678;-75
2021/04/10 03:40:08;;;;;;;;;;;;;;;21.02;47.70;100841.78;2089828;28;1626;-74
2021/04/10 03:41:09;;;;;;;;;;;;;;;21.01;47.76;100845.81;2089024;28;1705;-74
2021/04/10 03:42:10;;;;;;;;;;;;;;;21.02;47.68;100850.31;2089773;28;1602;-74
2021/04/10 03:43:10;;;;;;;;;;;;;;;21.02;47.71;100847.47;2089743;28;1692;-74
2021/04/10 03:44:11;;;;;;;;;;;;;;;21.02;47.70;100850.31;2086409;28;1877;-73
2021/04/10 03:45:11;;;;;;;;;;;;;;;21.02;47.60;100856.00;2087474;28;1777;-73
2021/04/10 03:46:25;;;;;;;;;;;;;;;21.03;47.68;100851.97;2084565;28;2018;-78
2021/04/10 03:47:26;;;;;;;;;;;;;;;21.02;47.77;100853.16;2089620;28;1839;-74
2021/04/10 03:48:27;;;;;;;;;;;;;;;21.03;47.75;100854.81;2088639;28;1908;-73
2021/04/10 03:49:28;;;;;;;;;;;;;;;21.02;47.76;100853.16;2088535;28;1901;-73
2021/04/10 03:50:28;;;;;;;;;;;;;;;21.03;47.76;100851.97;2088692;28;2195;-74
2021/04/10 03:51:29;;;;;;;;;;;;;;;21.03;47.70;100858.47;2088129;28;1894;-74
2021/04/10 03:52:30;;;;;;;;;;;;;;;21.03;47.68;100864.16;2089619;28;1550;-73
2021/04/10 03:53:31;;;;;;;;;;;;;;;21.03;47.64;100863.34;2088966;28;1811;-73
2021/04/10 03:54:32;;;;;;;;;;;;;;;21.03;47.66;100863.34;2090598;28;1613;-74
2021/04/10 03:55:33;;;;;;;;;;;;;;;21.02;47.60;100867.38;2089899;28;1318;-73
2021/04/10 03:56:34;;;;;;;;;;;;;;;21.02;47.71;100862.50;2088277;28;2031;-73
2021/04/10 03:57:35;;;;;;;;;;;;;;;21.03;47.71;100860.50;2088788;28;1984;-73
2021/04/10 03:58:35;;;;;;;;;;;;;;;21.02;47.60;100862.50;2090005;28;1087;-73
2021/04/10 03:59:36;;;;;;;;;;;;;;;21.03;47.70;100866.19;2089266;28;1621;-73
2021/04/10 04:00:37;;;;;;;;;;;;;;;21.02;47.63;100865.34;2088772;28;1898;-73
2021/04/10 04:01:38;;;;;;;;;;;;;;;21.03;47.60;100877.56;2089313;28;1826;-74
2021/04/10 04:02:39;;;;;;;;;;;;;;;21.02;47.57;100870.22;2084191;28;2059;-74
2021/04/10 04:03:39;;;;;;;;;;;;;;;21.02;47.61;100876.72;2088678;28;1758;-73
2021/04/10 04:04:40;;;;;;;;;;;;;;;21.03;47.72;100869.03;2089823;28;1875;-73
2021/04/10 04:05:41;;;;;;;;;;;;;;;21.04;47.78;100870.69;2090221;28;1052;-74
2021/04/10 04:06:42;;;;;;;;;;;;;;;21.03;47.69;100869.03;2087481;28;1663;-74
2021/04/10 04:07:42;;;;;;;;;;;;;;;21.02;47.74;100870.22;2085647;28;2097;-73
2021/04/10 04:08:43;;;;;;;;;;;;;;;21.02;47.69;100873.06;2090123;28;1254;-73
2021/04/10 04:09:44;;;;;;;;;;;;;;;21.02;47.67;100871.03;2087717;28;1765;-73
2021/04/10 04:10:45;;;;;;;;;;;;;;;21.03;47.58;100874.72;2089225;28;1571;-73
2021/04/10 04:11:45;;;;;;;;;;;;;;;21.02;47.55;100873.88;2089764;28;1731;-73
2021/04/10 04:12:46;;;;;;;;;;;;;;;21.03;47.68;100883.25;2089265;28;1752;-73
2021/04/10 04:13:47;;;;;;;;;;;;;;;21.02;47.71;100876.72;2084213;28;1886;-73
2021/04/10 04:14:47;;;;;;;;;;;;;;;21.03;47.60;100883.25;2090874;28;1499;-73
2021/04/10 04:15:48;;;;;;;;;;;;;;;21.02;47.73;100888.09;2091196;28;1779;-73
2021/04/10 04:16:49;;;;;;;;;;;;;;;21.02;47.68;100882.41;2091059;28;1882;-73
2021/04/10 04:17:50;;;;;;;;;;;;;;;21.03;47.62;100874.72;2088721;28;1934;-73
2021/04/10 04:18:51;;;;;;;;;;;;;;;21.03;47.61;100878.38;2091125;28;1053;-74
2021/04/10 04:19:51;;;;;;;;;;;;;;;21.03;47.57;100880.41;2086982;28;1886;-73
2021/04/10 04:20:52;;;;;;;;;;;;;;;21.02;47.50;100879.56;2091329;28;1663;-73
2021/04/10 04:21:53;;;;;;;;;;;;;;;21.02;47.59;100878.75;2090395;28;1777;-74
2021/04/10 04:22:54;;;;;;;;;;;;;;;21.03;47.69;100874.72;2091672;28;2020;-73
2021/04/10 04:23:54;;;;;;;;;;;;;;;21.03;47.52;100883.25;2090637;28;2060;-73
2021/04/10 04:24:55;;;;;;;;;;;;;;;21.02;47.69;100878.75;2089038;28;2066;-73
2021/04/10 04:25:56;;;;;;;;;;;;;;;21.02;47.56;100884.44;2090280;28;1614;-73
2021/04/10 04:26:57;;;;;;;;;;;;;;;21.03;47.56;100883.25;2091052;28;2082;-74
2021/04/10 04:28:00;;;;;;;;;;;;;;;21.02;47.71;100885.25;2091220;28;1736;-73
2021/04/10 04:29:01;;;;;;;;;;;;;;;21.02;47.82;100885.25;2090958;28;1535;-73
2021/04/10 04:30:01;;;;;;;;;;;;;;;21.03;47.60;100880.41;2090379;28;1692;-73
2021/04/10 04:31:02;;;;;;;;;;;;;;;21.02;47.74;100879.56;2090467;28;1839;-74
2021/04/10 04:32:03;;;;;;;;;;;;;;;21.03;47.58;100886.09;2090440;28;1697;-74
2021/04/10 04:33:04;;;;;;;;;;;;;;;21.03;47.72;100886.09;2090357;28;1754;-73
2021/04/10 04:34:04;;;;;;;;;;;;;;;21.03;47.70;100897.47;2090042;28;1555;-73
2021/04/10 04:35:05;;;;;;;;;;;;;;;21.02;47.71;100890.94;2087735;28;1930;-73
2021/04/10 04:36:06;;;;;;;;;;;;;;;21.02;47.69;100896.63;2089936;28;1609;-74
2021/04/10 04:37:07;;;;;;;;;;;;;;;21.03;47.66;100897.47;2091511;28;1173;-73
2021/04/10 04:38:08;;;;;;;;;;;;;;;21.02;47.64;100901.50;2090875;28;1922;-74
2021/04/10 04:39:08;;;;;;;;;;;;;;;21.03;47.64;100903.16;2091173;28;1757;-74
2021/04/10 04:40:09;;;;;;;;;;;;;;;21.03;47.69;100903.16;2089561;28;1758;-73
2021/04/10 04:41:10;;;;;;;;;;;;;;;21.03;47.46;100903.16;2090540;28;1888;-73
2021/04/10 04:42:11;;;;;;;;;;;;;;;21.02;47.70;100901.50;2091075;28;1696;-73
2021/04/10 04:43:11;;;;;;;;;;;;;;;21.01;47.50;100903.53;2089983;28;2186;-73
2021/04/10 04:44:12;;;;;;;;;;;;;;;21.02;47.57;100895.81;2090190;28;1754;-73
2021/04/10 04:45:13;;;;;;;;;;;;;;;21.01;47.56;100892.16;2090851;28;1732;-73
2021/04/10 04:46:14;;;;;;;;;;;;;;;21.02;47.62;100901.50;2082307;28;1523;-73
2021/04/10 04:47:15;;;;;;;;;;;;;;;21.03;47.52;100906.00;2082092;28;1525;-73
2021/04/10 04:48:16;;;;;;;;;;;;;;;21.01;47.60;100900.69;2089476;28;2341;-74
2021/04/10 04:49:17;;;;;;;;;;;;;;;21.02;47.52;100916.56;2091255;28;1149;-73
2021/04/10 04:50:18;;;;;;;;;;;;;;;21.02;47.59;100901.50;2091369;28;2345;-73
2021/04/10 04:51:18;;;;;;;;;;;;;;;21.03;47.51;100908.84;2091406;28;1088;-73
2021/04/10 04:52:19;;;;;;;;;;;;;;;21.02;47.65;100902.31;2090341;28;1811;-74
2021/04/10 04:53:21;;;;;;;;;;;;;;;21.02;47.49;100901.50;2089306;28;2259;-73
2021/04/10 04:54:22;;;;;;;;;;;;;;;21.02;47.56;100895.81;2090318;28;2347;-73
2021/04/10 04:55:23;;;;;;;;;;;;;;;21.02;47.70;100901.50;2088296;28;1922;-73
2021/04/10 04:56:24;;;;;;;;;;;;;;;21.02;47.51;100904.34;2091167;28;2196;-72
2021/04/10 04:57:25;;;;;;;;;;;;;;;21.01;47.47;100906.38;2090058;28;1969;-74
2021/04/10 04:58:25;;;;;;;;;;;;;;;21.02;47.42;100919.41;2091639;28;1297;-74
2021/04/10 04:59:26;;;;;;;;;;;;;;;21.02;47.59;100912.88;2090423;28;1941;-75
2021/04/10 05:00:27;;;;;;;;;;;;;;;21.02;47.48;100918.56;2086491;28;1937;-75
2021/04/10 05:01:28;;;;;;;;;;;;;;;21.02;47.57;100921.41;2091316;28;1697;-74
2021/04/10 05:02:29;;;;;;;;;;;;;;;21.01;47.59;100923.44;2089896;28;1793;-74
2021/04/10 05:03:30;;;;;;;;;;;;;;;21.01;47.42;100920.59;2090820;28;1871;-75
2021/04/10 05:04:31;;;;;;;;;;;;;;;21.02;47.55;100918.56;2091284;28;1095;-74
2021/04/10 05:05:32;;;;;;;;;;;;;;;21.01;47.48;100928.31;2086871;28;1794;-73
2021/04/10 05:06:33;;;;;;;;;;;;;;;21.02;47.41;100921.41;2090700;28;1158;-73
2021/04/10 05:07:33;;;;;;;;;;;;;;;21.01;47.43;100920.59;2090490;28;1606;-74
2021/04/10 05:08:34;;;;;;;;;;;;;;;21.01;47.37;100923.44;2090109;28;1685;-74
2021/04/10 05:09:35;;;;;;;;;;;;;;;21.02;47.47;100936.47;2090108;28;2350;-73
2021/04/10 05:10:36;;;;;;;;;;;;;;;21.01;47.47;100929.13;2087233;28;1779;-73
2021/04/10 05:11:37;;;;;;;;;;;;;;;21.02;47.45;100935.63;2090100;28;2136;-73
2021/04/10 05:12:37;;;;;;;;;;;;;;;21.02;47.47;100936.47;2091011;28;1401;-73
2021/04/10 05:13:38;;;;;;;;;;;;;;;21.01;47.42;100934.00;2089354;28;1996;-73
2021/04/10 05:14:39;;;;;;;;;;;;;;;21.02;47.39;100944.16;2090751;28;1887;-73
2021/04/10 05:15:41;;;;;;;;;;;;;;;21.02;47.46;100942.16;2090512;28;1745;-73
2021/04/10 05:16:41;;;;;;;;;;;;;;;21.02;47.44;100938.47;2090603;28;1386;-73
2021/04/10 05:17:42;;;;;;;;;;;;;;;21.01;47.55;100936.84;2089943;28;1992;-73